sensor_id;sensor_type;location;lat;lon;timestamp;pressure;altitude;pressure_sealevel;temperature;humidity
72285;BME280;60220;53.552;10.092;2022-12-05T00:00:51;101783.81;;;5.56;78.19
72285;BME280;60220;53.552;10.092;2022-12-05T00:03:20;101784.28;;;5.06;78.33
72285;BME280;60220;53.552;10.092;2022-12-05T00:05:47;101788.66;;;4.75;80.61
72285;BME280;60220;53.552;10.092;2022-12-05T00:08:14;101785.78;;;5.31;79.53
72285;BME280;60220;53.552;10.092;2022-12-05T00:10:51;101783.97;;;5.28;78.58
72285;BME280;60220;53.552;10.092;2022-12-05T00:13:19;101790.06;;;4.63;81.31
72285;BME280;60220;53.552;10.092;2022-12-05T00:15:47;101783.06;;;5.26;79.90
72285;BME280;60220;53.552;10.092;2022-12-05T00:18:14;101781.06;;;5.16;79.29
72285;BME280;60220;53.552;10.092;2022-12-05T00:20:44;101784.81;;;5.27;79.45
72285;BME280;60220;53.552;10.092;2022-12-05T00:23:11;101780.72;;;5.37;78.85
72285;BME280;60220;53.552;10.092;2022-12-05T00:25:41;101769.44;;;5.03;80.08
72285;BME280;60220;53.552;10.092;2022-12-05T00:28:08;101767.50;;;4.95;79.51
72285;BME280;60220;53.552;10.092;2022-12-05T00:30:38;101764.13;;;4.99;80.23
72285;BME280;60220;53.552;10.092;2022-12-05T00:33:06;101769.84;;;5.18;79.79
72285;BME280;60220;53.552;10.092;2022-12-05T00:35:33;101769.44;;;5.02;79.08
72285;BME280;60220;53.552;10.092;2022-12-05T00:38:00;101771.25;;;5.40;78.64
72285;BME280;60220;53.552;10.092;2022-12-05T00:40:27;101765.22;;;5.41;77.96
72285;BME280;60220;53.552;10.092;2022-12-05T00:42:56;101758.31;;;5.09;79.15
72285;BME280;60220;53.552;10.092;2022-12-05T00:45:23;101762.28;;;5.28;78.76
72285;BME280;60220;53.552;10.092;2022-12-05T00:47:50;101765.25;;;5.43;78.24
72285;BME280;60220;53.552;10.092;2022-12-05T00:50:20;101763.84;;;5.21;79.19
72285;BME280;60220;53.552;10.092;2022-12-05T00:52:47;101758.91;;;5.68;77.48
72285;BME280;60220;53.552;10.092;2022-12-05T00:55:16;101756.69;;;5.48;78.26
72285;BME280;60220;53.552;10.092;2022-12-05T00:57:48;101758.97;;;5.71;77.67
72285;BME280;60220;53.552;10.092;2022-12-05T01:00:15;101759.03;;;5.03;80.48
72285;BME280;60220;53.552;10.092;2022-12-05T01:02:45;101755.38;;;5.30;79.84
72285;BME280;60220;53.552;10.092;2022-12-05T01:05:11;101758.91;;;4.99;80.91
72285;BME280;60220;53.552;10.092;2022-12-05T01:07:41;101762.94;;;4.86;81.19
72285;BME280;60220;53.552;10.092;2022-12-05T01:10:10;101758.56;;;5.18;80.60
72285;BME280;60220;53.552;10.092;2022-12-05T01:12:37;101761.50;;;5.32;79.89
72285;BME280;60220;53.552;10.092;2022-12-05T01:15:11;101760.38;;;5.58;79.05
72285;BME280;60220;53.552;10.092;2022-12-05T01:17:40;101756.53;;;5.41;77.98
72285;BME280;60220;53.552;10.092;2022-12-05T01:20:07;101757.81;;;5.59;78.28
72285;BME280;60220;53.552;10.092;2022-12-05T01:22:36;101760.31;;;5.91;77.13
72285;BME280;60220;53.552;10.092;2022-12-05T01:25:06;101761.91;;;5.14;80.34
72285;BME280;60220;53.552;10.092;2022-12-05T01:27:35;101766.22;;;5.46;79.69
72285;BME280;60220;53.552;10.092;2022-12-05T01:30:03;101752.97;;;5.03;80.32
72285;BME280;60220;53.552;10.092;2022-12-05T01:32:31;101750.28;;;5.00;80.61
72285;BME280;60220;53.552;10.092;2022-12-05T01:35:00;101758.56;;;5.54;78.72
72285;BME280;60220;53.552;10.092;2022-12-05T01:37:27;101760.53;;;6.00;76.79
72285;BME280;60220;53.552;10.092;2022-12-05T01:39:53;101761.56;;;5.71;76.74
72285;BME280;60220;53.552;10.092;2022-12-05T01:42:24;101747.75;;;5.37;78.65
72285;BME280;60220;53.552;10.092;2022-12-05T01:45:12;101754.38;;;5.60;78.87
72285;BME280;60220;53.552;10.092;2022-12-05T01:47:43;101750.94;;;5.26;80.00
72285;BME280;60220;53.552;10.092;2022-12-05T01:50:11;101749.47;;;5.73;77.62
72285;BME280;60220;53.552;10.092;2022-12-05T01:52:41;101743.97;;;5.60;79.23
72285;BME280;60220;53.552;10.092;2022-12-05T01:55:12;101745.56;;;5.19;79.10
72285;BME280;60220;53.552;10.092;2022-12-05T01:57:46;101744.56;;;5.49;78.50
72285;BME280;60220;53.552;10.092;2022-12-05T02:00:16;101747.34;;;5.56;78.43
72285;BME280;60220;53.552;10.092;2022-12-05T02:02:52;101743.19;;;5.27;79.39
72285;BME280;60220;53.552;10.092;2022-12-05T02:05:24;101747.50;;;5.62;78.02
72285;BME280;60220;53.552;10.092;2022-12-05T02:07:53;101739.50;;;5.19;79.47
72285;BME280;60220;53.552;10.092;2022-12-05T02:10:24;101742.59;;;5.76;78.34
72285;BME280;60220;53.552;10.092;2022-12-05T02:12:53;101743.13;;;5.63;77.88
72285;BME280;60220;53.552;10.092;2022-12-05T02:15:30;101734.56;;;4.95;79.99
72285;BME280;60220;53.552;10.092;2022-12-05T02:18:20;101738.69;;;5.57;79.26
72285;BME280;60220;53.552;10.092;2022-12-05T02:21:05;101734.47;;;5.62;78.10
72285;BME280;60220;53.552;10.092;2022-12-05T02:26:59;101725.16;;;5.74;78.36
72285;BME280;60220;53.552;10.092;2022-12-05T02:29:46;101720.94;;;5.41;79.43
72285;BME280;60220;53.552;10.092;2022-12-05T02:32:26;101723.06;;;5.57;79.00
72285;BME280;60220;53.552;10.092;2022-12-05T02:34:59;101718.22;;;5.73;78.72
72285;BME280;60220;53.552;10.092;2022-12-05T02:37:53;101716.59;;;5.78;78.69
72285;BME280;60220;53.552;10.092;2022-12-05T02:40:49;101719.19;;;6.18;77.83
72285;BME280;60220;53.552;10.092;2022-12-05T02:43:40;101703.19;;;6.00;76.38
72285;BME280;60220;53.552;10.092;2022-12-05T02:46:30;101709.75;;;5.83;78.72
72285;BME280;60220;53.552;10.092;2022-12-05T02:49:03;101707.38;;;5.54;79.45
72285;BME280;60220;53.552;10.092;2022-12-05T02:51:56;101700.88;;;5.75;79.40
72285;BME280;60220;53.552;10.092;2022-12-05T02:54:35;101702.63;;;5.76;78.18
72285;BME280;60220;53.552;10.092;2022-12-05T02:57:07;101699.19;;;5.77;78.69
72285;BME280;60220;53.552;10.092;2022-12-05T02:59:34;101701.94;;;5.09;81.36
72285;BME280;60220;53.552;10.092;2022-12-05T03:04:50;101700.91;;;5.37;81.28
72285;BME280;60220;53.552;10.092;2022-12-05T03:07:18;101698.06;;;5.28;81.53
72285;BME280;60220;53.552;10.092;2022-12-05T03:09:57;101693.69;;;5.64;80.11
72285;BME280;60220;53.552;10.092;2022-12-05T03:12:37;101689.84;;;5.47;80.66
72285;BME280;60220;53.552;10.092;2022-12-05T03:15:16;101685.88;;;5.64;79.97
72285;BME280;60220;53.552;10.092;2022-12-05T03:17:49;101683.53;;;5.75;80.69
72285;BME280;60220;53.552;10.092;2022-12-05T03:20:22;101683.78;;;5.11;82.12
72285;BME280;60220;53.552;10.092;2022-12-05T03:22:57;101682.59;;;5.73;80.62
72285;BME280;60220;53.552;10.092;2022-12-05T03:25:45;101682.88;;;5.85;79.94
72285;BME280;60220;53.552;10.092;2022-12-05T03:28:21;101684.47;;;6.19;78.40
72285;BME280;60220;53.552;10.092;2022-12-05T03:30:55;101685.00;;;6.01;79.50
72285;BME280;60220;53.552;10.092;2022-12-05T03:33:34;101685.03;;;6.04;78.74
72285;BME280;60220;53.552;10.092;2022-12-05T03:36:11;101692.25;;;6.16;79.22
72285;BME280;60220;53.552;10.092;2022-12-05T03:38:46;101689.44;;;6.07;79.03
72285;BME280;60220;53.552;10.092;2022-12-05T03:41:32;101700.25;;;5.86;79.41
72285;BME280;60220;53.552;10.092;2022-12-05T03:44:06;101704.81;;;5.95;78.99
72285;BME280;60220;53.552;10.092;2022-12-05T03:46:41;101700.69;;;5.66;80.15
72285;BME280;60220;53.552;10.092;2022-12-05T03:49:19;101704.47;;;5.80;79.84
72285;BME280;60220;53.552;10.092;2022-12-05T03:51:53;101698.22;;;5.73;79.30
72285;BME280;60220;53.552;10.092;2022-12-05T03:54:24;101704.47;;;5.80;79.68
72285;BME280;60220;53.552;10.092;2022-12-05T03:56:55;101693.09;;;5.76;79.66
72285;BME280;60220;53.552;10.092;2022-12-05T03:59:29;101699.19;;;5.77;79.43
72285;BME280;60220;53.552;10.092;2022-12-05T04:01:59;101699.59;;;5.56;80.23
72285;BME280;60220;53.552;10.092;2022-12-05T04:04:33;101697.28;;;5.70;80.81
72285;BME280;60220;53.552;10.092;2022-12-05T04:07:03;101695.75;;;5.78;80.19
72285;BME280;60220;53.552;10.092;2022-12-05T04:09:54;101694.72;;;5.71;79.72
72285;BME280;60220;53.552;10.092;2022-12-05T04:12:27;101697.75;;;5.89;79.80
72285;BME280;60220;53.552;10.092;2022-12-05T04:14:59;101699.50;;;5.51;80.75
72285;BME280;60220;53.552;10.092;2022-12-05T04:17:31;101700.69;;;5.66;81.24
72285;BME280;60220;53.552;10.092;2022-12-05T04:20:04;101699.06;;;5.71;80.26
72285;BME280;60220;53.552;10.092;2022-12-05T04:22:52;101696.28;;;6.02;78.86
72285;BME280;60220;53.552;10.092;2022-12-05T04:25:43;101698.13;;;5.67;80.63
72285;BME280;60220;53.552;10.092;2022-12-05T04:28:25;101698.03;;;5.62;81.63
72285;BME280;60220;53.552;10.092;2022-12-05T04:31:00;101698.56;;;5.49;81.28
72285;BME280;60220;53.552;10.092;2022-12-05T04:33:41;101707.47;;;5.96;80.49
72285;BME280;60220;53.552;10.092;2022-12-05T04:36:15;101702.63;;;5.76;80.42
72285;BME280;60220;53.552;10.092;2022-12-05T04:38:50;101702.38;;;6.02;79.70
72285;BME280;60220;53.552;10.092;2022-12-05T04:41:27;101690.88;;;5.93;79.66
72285;BME280;60220;53.552;10.092;2022-12-05T04:43:59;101682.41;;;6.48;78.23
72285;BME280;60220;53.552;10.092;2022-12-05T04:46:30;101702.13;;;6.32;78.57
72285;BME280;60220;53.552;10.092;2022-12-05T04:48:59;101702.72;;;6.19;79.59
72285;BME280;60220;53.552;10.092;2022-12-05T04:51:31;101701.81;;;6.17;79.41
72285;BME280;60220;53.552;10.092;2022-12-05T04:54:07;101706.66;;;5.61;80.79
72285;BME280;60220;53.552;10.092;2022-12-05T04:56:40;101694.13;;;6.25;79.60
72285;BME280;60220;53.552;10.092;2022-12-05T04:59:09;101695.91;;;5.85;80.06
72285;BME280;60220;53.552;10.092;2022-12-05T05:01:44;101685.31;;;6.18;79.63
72285;BME280;60220;53.552;10.092;2022-12-05T05:04:20;101689.81;;;6.25;80.01
72285;BME280;60220;53.552;10.092;2022-12-05T05:06:51;101674.03;;;6.19;79.04
72285;BME280;60220;53.552;10.092;2022-12-05T05:09:18;101679.72;;;6.00;79.49
72285;BME280;60220;53.552;10.092;2022-12-05T05:11:45;101673.84;;;6.55;78.50
72285;BME280;60220;53.552;10.092;2022-12-05T05:14:25;101677.84;;;6.36;78.74
72285;BME280;60220;53.552;10.092;2022-12-05T05:16:52;101685.97;;;5.69;80.38
72285;BME280;60220;53.552;10.092;2022-12-05T05:19:19;101682.56;;;5.33;82.21
72285;BME280;60220;53.552;10.092;2022-12-05T05:21:48;101686.97;;;5.73;80.84
72285;BME280;60220;53.552;10.092;2022-12-05T05:24:16;101688.47;;;6.03;80.14
72285;BME280;60220;53.552;10.092;2022-12-05T05:26:48;101697.63;;;5.46;81.29
72285;BME280;60220;53.552;10.092;2022-12-05T05:29:22;101690.06;;;5.56;81.96
72285;BME280;60220;53.552;10.092;2022-12-05T05:31:54;101677.97;;;5.99;82.03
72285;BME280;60220;53.552;10.092;2022-12-05T05:34:20;101687.06;;;5.79;82.49
72285;BME280;60220;53.552;10.092;2022-12-05T05:36:50;101691.38;;;5.78;81.02
72285;BME280;60220;53.552;10.092;2022-12-05T05:39:18;101679.63;;;5.56;80.66
72285;BME280;60220;53.552;10.092;2022-12-05T05:41:45;101690.59;;;5.42;82.51
72285;BME280;60220;53.552;10.092;2022-12-05T05:44:11;101686.47;;;5.90;80.43
72285;BME280;60220;53.552;10.092;2022-12-05T05:46:38;101687.78;;;5.33;81.06
72285;BME280;60220;53.552;10.092;2022-12-05T05:49:05;101687.59;;;5.25;82.38
72285;BME280;60220;53.552;10.092;2022-12-05T05:51:31;101692.16;;;4.98;82.96
72285;BME280;60220;53.552;10.092;2022-12-05T05:53:58;101693.66;;;4.90;84.43
72285;BME280;60220;53.552;10.092;2022-12-05T05:56:27;101689.41;;;5.29;83.36
72285;BME280;60220;53.552;10.092;2022-12-05T05:58:57;101690.06;;;5.56;81.62
72285;BME280;60220;53.552;10.092;2022-12-05T06:01:24;101691.97;;;5.65;82.11
72285;BME280;60220;53.552;10.092;2022-12-05T06:03:50;101696.34;;;5.66;81.51
72285;BME280;60220;53.552;10.092;2022-12-05T06:06:18;101696.13;;;5.18;83.75
72285;BME280;60220;53.552;10.092;2022-12-05T06:08:45;101692.16;;;5.35;81.36
72285;BME280;60220;53.552;10.092;2022-12-05T06:11:14;101698.31;;;5.76;80.87
72285;BME280;60220;53.552;10.092;2022-12-05T06:13:45;101700.13;;;5.41;81.02
72285;BME280;60220;53.552;10.092;2022-12-05T06:16:13;101703.00;;;5.91;81.17
72285;BME280;60220;53.552;10.092;2022-12-05T06:18:40;101701.06;;;5.84;79.86
72285;BME280;60220;53.552;10.092;2022-12-05T06:21:08;101695.56;;;5.70;79.85
72285;BME280;60220;53.552;10.092;2022-12-05T06:23:38;101698.16;;;5.31;81.28
72285;BME280;60220;53.552;10.092;2022-12-05T06:26:08;101690.59;;;5.06;82.76
72285;BME280;60220;53.552;10.092;2022-12-05T06:28:37;101700.22;;;4.75;83.96
72285;BME280;60220;53.552;10.092;2022-12-05T06:31:11;101698.69;;;4.84;83.52
72285;BME280;60220;53.552;10.092;2022-12-05T06:33:38;101705.13;;;5.32;82.38
72285;BME280;60220;53.552;10.092;2022-12-05T06:36:07;101692.53;;;5.14;81.69
72285;BME280;60220;53.552;10.092;2022-12-05T06:38:34;101702.63;;;5.01;82.04
72285;BME280;60220;53.552;10.092;2022-12-05T06:41:03;101702.28;;;4.89;82.31
72285;BME280;60220;53.552;10.092;2022-12-05T06:43:30;101709.69;;;5.42;81.97
72285;BME280;60220;53.552;10.092;2022-12-05T06:45:57;101703.78;;;4.79;82.38
72285;BME280;60220;53.552;10.092;2022-12-05T06:48:25;101711.91;;;4.91;82.63
72285;BME280;60220;53.552;10.092;2022-12-05T06:50:52;101714.78;;;5.02;82.08
72285;BME280;60220;53.552;10.092;2022-12-05T06:53:19;101713.22;;;4.11;83.84
72285;BME280;60220;53.552;10.092;2022-12-05T06:55:54;101715.66;;;4.37;83.95
72285;BME280;60220;53.552;10.092;2022-12-05T06:58:23;101717.84;;;4.86;82.63
72285;BME280;60220;53.552;10.092;2022-12-05T07:00:50;101719.38;;;4.79;81.91
72285;BME280;60220;53.552;10.092;2022-12-05T07:03:35;101720.00;;;5.02;81.27
72285;BME280;60220;53.552;10.092;2022-12-05T07:06:03;101723.03;;;4.86;82.79
72285;BME280;60220;53.552;10.092;2022-12-05T07:08:33;101721.88;;;4.74;81.98
72285;BME280;60220;53.552;10.092;2022-12-05T07:11:00;101719.59;;;4.22;82.65
72285;BME280;60220;53.552;10.092;2022-12-05T07:13:26;101718.59;;;4.19;83.09
72285;BME280;60220;53.552;10.092;2022-12-05T07:15:53;101715.38;;;4.57;81.63
72285;BME280;60220;53.552;10.092;2022-12-05T07:18:22;101712.25;;;4.70;81.16
72285;BME280;60220;53.552;10.092;2022-12-05T07:20:56;101712.53;;;4.50;80.48
72285;BME280;60220;53.552;10.092;2022-12-05T07:23:23;101710.03;;;4.86;79.43
72285;BME280;60220;53.552;10.092;2022-12-05T07:25:50;101714.06;;;5.09;79.77
72285;BME280;60220;53.552;10.092;2022-12-05T07:28:16;101715.59;;;5.35;77.49
72285;BME280;60220;53.552;10.092;2022-12-05T07:30:43;101716.78;;;5.49;78.53
72285;BME280;60220;53.552;10.092;2022-12-05T07:33:10;101711.38;;;5.79;76.35
72285;BME280;60220;53.552;10.092;2022-12-05T07:35:36;101714.28;;;5.52;77.27
72285;BME280;60220;53.552;10.092;2022-12-05T07:38:04;101714.97;;;5.45;77.16
72285;BME280;60220;53.552;10.092;2022-12-05T07:40:31;101711.63;;;5.51;76.60
72285;BME280;60220;53.552;10.092;2022-12-05T07:43:00;101707.31;;;5.15;77.25
72285;BME280;60220;53.552;10.092;2022-12-05T07:45:27;101709.59;;;5.03;76.64
72285;BME280;60220;53.552;10.092;2022-12-05T07:47:56;101712.63;;;4.86;78.91
72285;BME280;60220;53.552;10.092;2022-12-05T07:50:22;101713.00;;;4.35;80.10
72285;BME280;60220;53.552;10.092;2022-12-05T07:52:49;101714.91;;;4.41;80.55
72285;BME280;60220;53.552;10.092;2022-12-05T07:55:17;101712.81;;;3.98;80.83
72285;BME280;60220;53.552;10.092;2022-12-05T07:57:44;101707.50;;;4.23;80.73
72285;BME280;60220;53.552;10.092;2022-12-05T08:00:12;101714.19;;;4.46;78.98
72285;BME280;60220;53.552;10.092;2022-12-05T08:02:39;101710.41;;;4.66;78.71
72285;BME280;60220;53.552;10.092;2022-12-05T08:05:06;101709.44;;;4.96;77.95
72285;BME280;60220;53.552;10.092;2022-12-05T08:07:35;101706.63;;;4.55;78.75
72285;BME280;60220;53.552;10.092;2022-12-05T08:10:02;101713.34;;;4.47;78.96
72285;BME280;60220;53.552;10.092;2022-12-05T08:12:30;101722.63;;;4.08;81.08
72285;BME280;60220;53.552;10.092;2022-12-05T08:14:57;101715.38;;;4.57;79.58
72285;BME280;60220;53.552;10.092;2022-12-05T08:17:24;101713.13;;;4.71;78.62
72285;BME280;60220;53.552;10.092;2022-12-05T08:19:51;101715.66;;;4.69;77.79
72285;BME280;60220;53.552;10.092;2022-12-05T08:22:17;101714.50;;;4.58;78.45
72285;BME280;60220;53.552;10.092;2022-12-05T08:24:44;101718.28;;;5.04;77.81
72285;BME280;60220;53.552;10.092;2022-12-05T08:27:10;101718.00;;;4.92;77.29
72285;BME280;60220;53.552;10.092;2022-12-05T08:29:38;101714.38;;;4.52;78.33
72285;BME280;60220;53.552;10.092;2022-12-05T08:32:08;101724.53;;;3.83;80.39
72285;BME280;60220;53.552;10.092;2022-12-05T08:34:35;101725.94;;;4.33;80.16
72285;BME280;60220;53.552;10.092;2022-12-05T08:37:01;101723.59;;;4.11;79.46
72285;BME280;60220;53.552;10.092;2022-12-05T08:39:28;101734.16;;;3.87;81.15
72285;BME280;60220;53.552;10.092;2022-12-05T08:41:56;101740.94;;;4.42;79.65
72285;BME280;60220;53.552;10.092;2022-12-05T08:44:23;101737.59;;;4.16;79.08
72285;BME280;60220;53.552;10.092;2022-12-05T08:46:53;101740.06;;;4.12;81.52
72285;BME280;60220;53.552;10.092;2022-12-05T08:49:22;101746.34;;;4.20;80.48
72285;BME280;60220;53.552;10.092;2022-12-05T08:51:51;101745.94;;;3.76;81.27
72285;BME280;60220;53.552;10.092;2022-12-05T08:54:17;101751.31;;;3.82;81.04
72285;BME280;60220;53.552;10.092;2022-12-05T08:56:44;101752.22;;;3.83;81.18
72285;BME280;60220;53.552;10.092;2022-12-05T08:59:13;101760.63;;;3.76;80.87
72285;BME280;60220;53.552;10.092;2022-12-05T09:01:41;101757.56;;;4.17;80.65
72285;BME280;60220;53.552;10.092;2022-12-05T09:04:10;101753.91;;;4.11;80.86
72285;BME280;60220;53.552;10.092;2022-12-05T09:06:36;101759.09;;;3.82;81.02
72285;BME280;60220;53.552;10.092;2022-12-05T09:09:06;101754.94;;;3.87;81.59
72285;BME280;60220;53.552;10.092;2022-12-05T09:11:38;101755.63;;;3.82;81.35
72285;BME280;60220;53.552;10.092;2022-12-05T09:14:08;101754.81;;;3.84;82.15
72285;BME280;60220;53.552;10.092;2022-12-05T09:16:37;101751.78;;;4.27;80.54
72285;BME280;60220;53.552;10.092;2022-12-05T09:19:12;101752.69;;;4.28;79.81
72285;BME280;60220;53.552;10.092;2022-12-05T09:21:39;101757.88;;;4.00;81.27
72285;BME280;60220;53.552;10.092;2022-12-05T09:24:06;101751.66;;;3.95;81.45
72285;BME280;60220;53.552;10.092;2022-12-05T09:26:33;101757.31;;;4.10;81.46
72285;BME280;60220;53.552;10.092;2022-12-05T09:29:01;101746.34;;;4.18;80.37
72285;BME280;60220;53.552;10.092;2022-12-05T09:31:30;101758.03;;;4.34;79.31
72285;BME280;60220;53.552;10.092;2022-12-05T09:33:57;101756.00;;;4.24;79.96
72285;BME280;60220;53.552;10.092;2022-12-05T09:36:26;101753.31;;;4.51;79.60
72285;BME280;60220;53.552;10.092;2022-12-05T09:38:54;101749.16;;;4.57;79.06
72285;BME280;60220;53.552;10.092;2022-12-05T09:41:37;101755.97;;;4.54;79.90
72285;BME280;60220;53.552;10.092;2022-12-05T09:47:28;101754.13;;;4.48;79.15
72285;BME280;60220;53.552;10.092;2022-12-05T09:49:58;101750.63;;;3.88;81.12
72285;BME280;60220;53.552;10.092;2022-12-05T09:52:30;101744.31;;;4.08;81.39
72285;BME280;60220;53.552;10.092;2022-12-05T09:55:02;101746.63;;;4.60;79.99
72285;BME280;60220;53.552;10.092;2022-12-05T09:57:34;101744.19;;;4.35;80.76
72285;BME280;60220;53.552;10.092;2022-12-05T10:00:05;101743.31;;;4.05;80.95
72285;BME280;60220;53.552;10.092;2022-12-05T10:02:38;101741.59;;;4.35;79.78
72285;BME280;60220;53.552;10.092;2022-12-05T10:05:11;101746.47;;;4.23;82.93
72285;BME280;60220;53.552;10.092;2022-12-05T10:07:49;101736.75;;;4.47;83.29
72285;BME280;60220;53.552;10.092;2022-12-05T10:10:26;101734.63;;;4.03;81.73
72285;BME280;60220;53.552;10.092;2022-12-05T10:13:02;101737.81;;;4.55;81.18
72285;BME280;60220;53.552;10.092;2022-12-05T10:15:37;101742.66;;;4.12;80.98
72285;BME280;60220;53.552;10.092;2022-12-05T10:18:13;101732.97;;;4.36;80.90
72285;BME280;60220;53.552;10.092;2022-12-05T10:20:46;101733.09;;;4.41;80.15
72285;BME280;60220;53.552;10.092;2022-12-05T10:23:17;101733.63;;;4.29;79.61
72285;BME280;60220;53.552;10.092;2022-12-05T10:25:48;101732.22;;;4.71;79.94
72285;BME280;60220;53.552;10.092;2022-12-05T10:28:26;101732.31;;;4.43;80.15
72285;BME280;60220;53.552;10.092;2022-12-05T10:30:55;101726.63;;;4.26;80.40
72285;BME280;60220;53.552;10.092;2022-12-05T10:33:31;101730.59;;;4.76;79.56
72285;BME280;60220;53.552;10.092;2022-12-05T10:36:01;101730.31;;;4.99;78.02
72285;BME280;60220;53.552;10.092;2022-12-05T10:38:35;101719.38;;;4.79;79.64
72285;BME280;60220;53.552;10.092;2022-12-05T10:41:05;101719.38;;;4.79;79.42
72285;BME280;60220;53.552;10.092;2022-12-05T10:43:33;101723.22;;;4.93;78.62
72285;BME280;60220;53.552;10.092;2022-12-05T10:46:03;101718.97;;;4.64;79.06
72285;BME280;60220;53.552;10.092;2022-12-05T10:48:34;101711.47;;;4.74;77.85
72285;BME280;60220;53.552;10.092;2022-12-05T10:51:01;101720.31;;;4.48;79.06
72285;BME280;60220;53.552;10.092;2022-12-05T10:53:39;101715.19;;;4.51;79.14
72285;BME280;60220;53.552;10.092;2022-12-05T10:56:35;101710.63;;;4.75;80.12
72285;BME280;60220;53.552;10.092;2022-12-05T10:59:03;101713.25;;;4.44;78.89
72285;BME280;60220;53.552;10.092;2022-12-05T11:01:30;101712.47;;;4.47;79.74
72285;BME280;60220;53.552;10.092;2022-12-05T11:03:59;101717.06;;;4.25;81.76
72285;BME280;60220;53.552;10.092;2022-12-05T11:06:28;101713.34;;;4.47;80.73
72285;BME280;60220;53.552;10.092;2022-12-05T11:08:58;101717.59;;;4.14;81.66
72285;BME280;60220;53.552;10.092;2022-12-05T11:11:29;101701.00;;;4.40;81.13
72285;BME280;60220;53.552;10.092;2022-12-05T11:14:20;101699.63;;;4.86;80.61
72285;BME280;60220;53.552;10.092;2022-12-05T11:16:52;101696.50;;;4.66;78.76
72285;BME280;60220;53.552;10.092;2022-12-05T11:19:25;101695.03;;;4.75;78.41
72285;BME280;60220;53.552;10.092;2022-12-05T11:21:53;101698.47;;;4.74;78.94
72285;BME280;60220;53.552;10.092;2022-12-05T11:24:24;101689.03;;;4.78;78.63
72285;BME280;60220;53.552;10.092;2022-12-05T11:26:53;101689.53;;;4.98;78.54
72285;BME280;60220;53.552;10.092;2022-12-05T11:29:32;101690.31;;;4.61;78.07
72285;BME280;60220;53.552;10.092;2022-12-05T11:31:59;101696.03;;;4.16;79.95
72285;BME280;60220;53.552;10.092;2022-12-05T11:34:30;101687.22;;;4.75;79.27
72285;BME280;60220;53.552;10.092;2022-12-05T11:37:04;101688.66;;;4.64;79.22
72285;BME280;60220;53.552;10.092;2022-12-05T11:39:37;101688.53;;;5.29;77.87
72285;BME280;60220;53.552;10.092;2022-12-05T11:42:14;101684.34;;;4.65;78.77
72285;BME280;60220;53.552;10.092;2022-12-05T11:44:59;101681.41;;;4.86;78.89
72285;BME280;60220;53.552;10.092;2022-12-05T11:47:42;101681.81;;;5.01;76.96
72285;BME280;60220;53.552;10.092;2022-12-05T11:50:27;101676.03;;;5.12;77.70
72285;BME280;60220;53.552;10.092;2022-12-05T11:53:12;101677.13;;;4.53;78.92
72285;BME280;60220;53.552;10.092;2022-12-05T11:55:45;101674.78;;;4.31;80.30
72285;BME280;60220;53.552;10.092;2022-12-05T11:58:27;101670.28;;;4.58;78.19
72285;BME280;60220;53.552;10.092;2022-12-05T12:01:02;101673.06;;;4.64;79.40
72285;BME280;60220;53.552;10.092;2022-12-05T12:03:48;101670.94;;;4.83;79.27
72285;BME280;60220;53.552;10.092;2022-12-05T12:06:27;101671.47;;;4.69;77.48
72285;BME280;60220;53.552;10.092;2022-12-05T12:09:24;101681.59;;;5.29;76.76
72285;BME280;60220;53.552;10.092;2022-12-05T12:12:00;101673.94;;;4.98;77.80
72285;BME280;60220;53.552;10.092;2022-12-05T12:14:37;101674.81;;;4.65;79.46
72285;BME280;60220;53.552;10.092;2022-12-05T12:17:15;101680.78;;;4.61;78.83
72285;BME280;60220;53.552;10.092;2022-12-05T12:19:55;101673.91;;;4.63;80.45
72285;BME280;60220;53.552;10.092;2022-12-05T12:22:36;101685.97;;;5.30;78.17
72285;BME280;60220;53.552;10.092;2022-12-05T12:25:22;101676.59;;;5.01;77.92
72285;BME280;60220;53.552;10.092;2022-12-05T12:28:02;101675.03;;;5.09;77.42
72285;BME280;60220;53.552;10.092;2022-12-05T12:30:41;101673.81;;;4.60;78.88
72285;BME280;60220;53.552;10.092;2022-12-05T12:33:14;101667.34;;;4.45;78.93
72285;BME280;60220;53.552;10.092;2022-12-05T12:35:50;101674.78;;;4.97;79.62
72285;BME280;60220;53.552;10.092;2022-12-05T12:38:33;101665.34;;;4.67;78.01
72285;BME280;60220;53.552;10.092;2022-12-05T12:41:07;101665.63;;;4.45;79.50
72285;BME280;60220;53.552;10.092;2022-12-05T12:43:57;101665.81;;;4.86;77.78
72285;BME280;60220;53.552;10.092;2022-12-05T12:46:40;101656.06;;;4.77;78.57
72285;BME280;60220;53.552;10.092;2022-12-05T12:49:27;101666.97;;;5.34;77.73
72285;BME280;60220;53.552;10.092;2022-12-05T12:52:00;101657.91;;;5.17;77.21
72285;BME280;60220;53.552;10.092;2022-12-05T12:54:51;101654.09;;;5.03;78.75
72285;BME280;60220;53.552;10.092;2022-12-05T12:57:26;101653.31;;;4.71;79.37
72285;BME280;60220;53.552;10.092;2022-12-05T13:00:19;101653.78;;;4.91;79.29
72285;BME280;60220;53.552;10.092;2022-12-05T13:02:52;101654.97;;;4.67;78.96
72285;BME280;60220;53.552;10.092;2022-12-05T13:05:25;101661.81;;;4.65;78.75
72285;BME280;60220;53.552;10.092;2022-12-05T13:07:57;101651.97;;;4.54;80.06
72285;BME280;60220;53.552;10.092;2022-12-05T13:10:31;101653.25;;;5.04;77.93
72285;BME280;60220;53.552;10.092;2022-12-05T13:13:03;101650.72;;;4.38;79.09
72285;BME280;60220;53.552;10.092;2022-12-05T13:15:37;101645.16;;;4.57;78.85
72285;BME280;60220;53.552;10.092;2022-12-05T13:18:11;101638.72;;;4.43;78.76
72285;BME280;60220;53.552;10.092;2022-12-05T13:20:40;101649.31;;;5.21;77.12
72285;BME280;60220;53.552;10.092;2022-12-05T13:23:12;101639.09;;;4.58;78.62
72285;BME280;60220;53.552;10.092;2022-12-05T13:25:42;101642.56;;;4.57;79.28